»·PEaware :: N41598 KMRY-KSJC

N41598 :: KMRY-KSJC

FLIGHT INFORMATION

Flight Status: Arrived
Operator: Privately registered:
United States
More flights under this callsign
Pilot: Alex C. (14758)
Aircraft: PIPER PA-32 SARATOGA
(PA32)
More flights by this aircraft type
Origin: KMRY Monterey Peninsula
United States
Destination: KSJC Mineta San Jose Intl
United States
More flights between these airports :: More routes between these airports
Route: +MRY4 SNS SJC
File this flight plan on PilotEdge
Remarks:
Altitude:
(Current/Filed)
6,000ft
Speed:
(Current/Filed)
160kts
Departed: 17-Oct-18 08:43 AM
Arrived: 17-Oct-18 09:15 AM
Distance/Time
Traveled:
47nm/0:32
Distance/Time
To Go:
Arrived

Flight Plot

Page will automatically refresh every two minutes.

Flight plan parsing failed; only flown route is shown


Map Options




Map Legend


Flown Route
Filed Route
Departure Airport
Arrival Airport
Navaid (VOR, NDB)
Fix

Horizontal Profiles

Position Reports

Time Latitude Longitude Heading Altitude Ground
Speed
17-Oct-18 08:30 36.591837 -121.850160 167 259ft 0kts
17-Oct-18 08:31 36.591837 -121.850160 167 259ft 0kts
17-Oct-18 08:32 36.591837 -121.850160 167 259ft 0kts
17-Oct-18 08:33 36.591837 -121.850160 167 259ft 0kts
17-Oct-18 08:34 36.591837 -121.850160 167 259ft 0kts
17-Oct-18 08:35 36.591837 -121.850160 167 259ft 0kts
17-Oct-18 08:36 36.591837 -121.850160 167 259ft 0kts
17-Oct-18 08:37 36.591455 -121.850279 223 258ft 5kts
17-Oct-18 08:38 36.589709 -121.849803 113 259ft 10kts
17-Oct-18 08:39 36.588600 -121.846376 115 259ft 10kts
17-Oct-18 08:40 36.587328 -121.842793 110 259ft 13kts
17-Oct-18 08:41 36.584218 -121.839147 113 259ft 19kts
17-Oct-18 08:42 36.582812 -121.834744 96 259ft 0kts
17-Oct-18 08:43 36.582812 -121.834744 96 259ft 0kts
17-Oct-18 08:44 36.583068 -121.833583 19 258ft 14kts
17-Oct-18 08:45 36.590833 -121.856865 291 741ft 106kts
17-Oct-18 08:46 36.609724 -121.878962 343 2046ft 98kts
17-Oct-18 08:47 36.635053 -121.889623 344 3323ft 98kts
17-Oct-18 08:48 36.648122 -121.868764 82 4583ft 95kts
17-Oct-18 08:49 36.650346 -121.836869 83 5805ft 96kts
17-Oct-18 08:50 36.653021 -121.793225 84 6010ft 159kts
17-Oct-18 08:51 36.680078 -121.762975 354 6007ft 165kts
17-Oct-18 08:52 36.724868 -121.773406 349 6006ft 164kts
17-Oct-18 08:53 36.769385 -121.785031 348 6006ft 164kts
17-Oct-18 08:54 36.813757 -121.796620 348 6006ft 164kts
17-Oct-18 08:55 36.857976 -121.808194 348 6006ft 164kts
17-Oct-18 08:56 36.901789 -121.819679 348 6006ft 164kts
17-Oct-18 08:57 36.944240 -121.830829 348 6006ft 164kts
17-Oct-18 08:58 36.984916 -121.841518 348 6006ft 164kts
17-Oct-18 08:59 37.024928 -121.852043 348 6006ft 164kts
17-Oct-18 09:00 37.063207 -121.850039 41 6008ft 164kts
17-Oct-18 09:01 37.093982 -121.812291 43 6006ft 165kts
17-Oct-18 09:02 37.125368 -121.773209 43 5920ft 162kts
17-Oct-18 09:03 37.156097 -121.735447 32 5205ft 157kts
17-Oct-18 09:04 37.189470 -121.746685 334 4844ft 150kts
17-Oct-18 09:05 37.213861 -121.767165 319 4346ft 148kts
17-Oct-18 09:06 37.230733 -121.785586 319 3852ft 114kts
17-Oct-18 09:07 37.243862 -121.799910 319 3297ft 101kts
17-Oct-18 09:08 37.256087 -121.813280 318 2933ft 81kts
17-Oct-18 09:09 37.268440 -121.826728 318 2493ft 101kts
17-Oct-18 09:10 37.280741 -121.840188 318 2110ft 98kts
17-Oct-18 09:11 37.293920 -121.854575 318 1739ft 103kts
17-Oct-18 09:12 37.308158 -121.870157 318 1353ft 105kts
17-Oct-18 09:13 37.321588 -121.884850 318 1005ft 90kts
17-Oct-18 09:14 37.334245 -121.898755 318 672ft 91kts
17-Oct-18 09:15 37.347402 -121.913161 318 332ft 87kts
17-Oct-18 09:16 37.360268 -121.927327 317 53ft 68kts
17-Oct-18 09:17 37.361971 -121.931229 227 53ft 8kts
17-Oct-18 09:18 37.360451 -121.931656 139 53ft 14kts
17-Oct-18 09:19 37.359082 -121.931446 219 53ft 0kts
17-Oct-18 09:20 37.359082 -121.931446 219 53ft 0kts

Navigation Log

Ident Type
Flight plan parsing failed, navigation log unavailable